createdAt,value
2023-04-30T00:01:42.169Z,99609.09
2023-04-30T00:06:44.755Z,99690.88
2023-04-30T00:11:48.518Z,99722.44
2023-04-30T00:16:51.043Z,99725.84
2023-04-30T00:21:55.103Z,99662.16
2023-04-30T00:26:58.579Z,99600.47
2023-04-30T00:32:01.054Z,99670.72
2023-04-30T00:37:03.994Z,99625.91
2023-04-30T00:42:06.617Z,99669.59
2023-04-30T00:47:08.950Z,99663.34
2023-04-30T00:52:11.383Z,99694.75
2023-04-30T00:57:16.531Z,99745.69
2023-04-30T01:02:19.113Z,99757.53
2023-04-30T01:07:22.071Z,99737.53
2023-04-30T01:12:33.776Z,99713.66
2023-04-30T01:17:41.966Z,99743.38
2023-04-30T01:22:55.167Z,99708.09
2023-04-30T01:28:10.873Z,99662.41
2023-04-30T01:33:14.191Z,99705.13
2023-04-30T01:38:24.714Z,99616.38
2023-04-30T01:43:34.854Z,99733.28
2023-04-30T01:49:01.274Z,99738.50
2023-04-30T01:54:11.756Z,99699.69
2023-04-30T01:59:15.076Z,99710.00
2023-04-30T02:04:17.527Z,99690.34
2023-04-30T02:09:19.960Z,99658.31
2023-04-30T02:14:22.374Z,99666.03
2023-04-30T02:19:48.399Z,99664.59
2023-04-30T02:24:50.876Z,99741.38
2023-04-30T02:29:54.137Z,99687.97
2023-04-30T02:34:57.028Z,99710.38
2023-04-30T02:39:59.500Z,99728.94
2023-04-30T02:45:02.252Z,99608.19
2023-04-30T02:50:07.488Z,99717.97
2023-04-30T02:55:10.094Z,99673.44
2023-04-30T03:00:13.249Z,99714.56
2023-04-30T03:05:16.225Z,99639.19
2023-04-30T03:10:19.468Z,99555.16
2023-04-30T03:15:22.543Z,99586.00
2023-04-30T03:20:24.968Z,99453.97
2023-04-30T03:25:27.389Z,99639.06
2023-04-30T03:30:29.823Z,99695.66
2023-04-30T03:35:32.732Z,99584.81
2023-04-30T03:40:35.604Z,99650.88
2023-04-30T03:45:38.314Z,99374.19
2023-04-30T03:50:40.880Z,99660.16
2023-04-30T03:55:43.524Z,99498.19
2023-04-30T04:00:48.638Z,99563.97
2023-04-30T04:05:51.049Z,99652.59
2023-04-30T04:10:53.728Z,99659.22
2023-04-30T04:15:56.140Z,99652.84
2023-04-30T04:20:58.623Z,99550.88
2023-04-30T04:26:01.956Z,99439.94
2023-04-30T04:31:04.626Z,99569.38
2023-04-30T04:36:07.962Z,99607.75
2023-04-30T04:41:10.339Z,99539.88
2023-04-30T04:46:14.475Z,99628.88
2023-04-30T04:51:16.920Z,99630.19
2023-04-30T04:56:19.309Z,99558.81
2023-04-30T05:01:22.153Z,99470.91
2023-04-30T05:06:24.578Z,99621.63
2023-04-30T05:11:29.305Z,99629.22
2023-04-30T05:16:32.120Z,99280.69
2023-04-30T05:21:34.678Z,99629.84
2023-04-30T05:26:37.110Z,99596.47
2023-04-30T05:31:39.555Z,99524.19
2023-04-30T05:36:43.188Z,99270.13
2023-04-30T05:41:49.119Z,99338.91
2023-04-30T05:46:51.707Z,99362.72
2023-04-30T05:51:54.091Z,99120.47
2023-04-30T05:56:56.477Z,99488.59
2023-04-30T06:01:58.934Z,99631.41
2023-04-30T06:07:01.564Z,99399.28
2023-04-30T06:12:04.437Z,99466.81
2023-04-30T06:17:06.884Z,99064.03
2023-04-30T06:22:09.489Z,99612.13
2023-04-30T06:27:11.810Z,99539.69
2023-04-30T06:32:14.279Z,99172.75
2023-04-30T06:37:16.685Z,99375.88
2023-04-30T06:42:19.032Z,99615.06
2023-04-30T06:47:21.330Z,99585.41
2023-04-30T06:52:23.683Z,99561.94
2023-04-30T06:57:26.154Z,99605.53
2023-04-30T07:02:28.612Z,99503.50
2023-04-30T07:07:31.660Z,99581.19
2023-04-30T07:12:34.385Z,99409.31
2023-04-30T07:17:37.548Z,99529.69
2023-04-30T07:22:39.973Z,99530.59
2023-04-30T07:27:42.635Z,99364.13
2023-04-30T07:32:45.501Z,99554.13
2023-04-30T07:37:48.310Z,99514.00
2023-04-30T07:42:50.904Z,99528.81
2023-04-30T07:47:53.580Z,99534.06
2023-04-30T07:52:56.149Z,99394.63
2023-04-30T07:57:59.263Z,99304.06
2023-04-30T08:03:01.916Z,99365.88
2023-04-30T08:08:04.705Z,99509.63
2023-04-30T08:13:07.217Z,99108.28
2023-04-30T08:18:10.163Z,99363.28
2023-04-30T08:23:12.626Z,99309.25
2023-04-30T08:28:15.050Z,99310.09
2023-04-30T08:33:18.149Z,99419.81
2023-04-30T08:38:20.700Z,99347.56
2023-04-30T08:43:23.932Z,99416.28
2023-04-30T08:48:27.099Z,99244.81
2023-04-30T08:53:36.096Z,99248.31
2023-04-30T08:58:38.560Z,99308.31
2023-04-30T09:03:41.107Z,99284.78
2023-04-30T09:08:48.521Z,99245.59
2023-04-30T09:13:55.108Z,99258.69
2023-04-30T09:18:57.833Z,99086.53
2023-04-30T09:24:02.483Z,98861.56
2023-04-30T09:29:08.404Z,98962.31
2023-04-30T09:34:11.320Z,99266.44
2023-04-30T09:39:17.907Z,99006.53
2023-04-30T09:44:30.172Z,99317.56
2023-04-30T09:49:32.823Z,99242.84
2023-04-30T09:54:36.084Z,99165.44
2023-04-30T09:59:40.092Z,99231.47
2023-04-30T10:04:44.068Z,99219.31
2023-04-30T10:10:25.344Z,99291.28
2023-04-30T10:15:36.009Z,99296.56
2023-04-30T10:20:39.525Z,99198.38
2023-04-30T10:25:41.897Z,99121.00
2023-04-30T10:30:44.609Z,99156.59
2023-04-30T10:35:55.962Z,99226.94
2023-04-30T10:41:02.777Z,99280.13
2023-04-30T10:46:05.295Z,99289.63
2023-04-30T10:51:10.263Z,99234.09
2023-04-30T10:56:13.628Z,98972.53
2023-04-30T11:01:17.886Z,98948.22
2023-04-30T11:06:22.043Z,99259.16
2023-04-30T11:11:24.502Z,99260.91
2023-04-30T11:16:49.705Z,99282.50
2023-04-30T11:22:04.259Z,99288.63
2023-04-30T11:27:06.775Z,99172.16
2023-04-30T11:32:09.741Z,99199.91
2023-04-30T11:37:20.935Z,99275.44
2023-04-30T11:42:23.399Z,99066.91
2023-04-30T11:47:25.871Z,99191.88
2023-04-30T11:52:28.830Z,99124.94
2023-04-30T11:57:36.085Z,99197.81
2023-04-30T12:02:39.808Z,99177.78
2023-04-30T12:07:47.521Z,99143.91
2023-04-30T12:12:53.008Z,99203.75
2023-04-30T12:17:57.938Z,99203.72
2023-04-30T12:23:01.445Z,99129.94
2023-04-30T12:28:03.880Z,99104.75
2023-04-30T12:33:06.542Z,99195.88
2023-04-30T12:38:09.995Z,99203.72
2023-04-30T12:43:16.182Z,99202.84
2023-04-30T12:48:20.275Z,99206.38
2023-04-30T12:53:24.108Z,99194.16
2023-04-30T12:58:31.540Z,99175.81
2023-04-30T13:03:33.999Z,99181.09
2023-04-30T13:08:45.610Z,99039.59
2023-04-30T13:13:52.553Z,99177.66
2023-04-30T13:18:56.495Z,99104.75
2023-04-30T13:29:02.063Z,99157.66
2023-04-30T13:34:04.509Z,99160.28
2023-04-30T13:39:07.185Z,99017.09
2023-04-30T13:44:09.813Z,99044.84
2023-04-30T13:49:12.259Z,99072.56
2023-04-30T13:54:14.685Z,99115.91
2023-04-30T13:59:17.144Z,98979.00
2023-04-30T14:04:20.136Z,98957.97
2023-04-30T14:09:23.106Z,99100.22
2023-04-30T14:14:26.713Z,99094.13
2023-04-30T14:19:29.299Z,99038.69
2023-04-30T14:24:32.034Z,99000.34
2023-04-30T14:29:34.465Z,98993.47
2023-04-30T14:34:37.915Z,99066.31
2023-04-30T14:39:41.885Z,98891.84
2023-04-30T14:44:44.576Z,98987.31
2023-04-30T14:49:47.824Z,98976.94
2023-04-30T14:54:50.202Z,98921.41
2023-04-30T14:59:55.528Z,98974.22
2023-04-30T15:04:58.263Z,98917.91
2023-04-30T15:10:01.146Z,99009.81
2023-04-30T15:15:05.111Z,98949.13
2023-04-30T15:20:09.107Z,98980.31
2023-04-30T15:25:11.626Z,98964.69
2023-04-30T15:30:14.082Z,98922.97
2023-04-30T15:35:16.499Z,98843.25
2023-04-30T15:40:18.824Z,98789.56
2023-04-30T15:45:22.462Z,98912.69
2023-04-30T15:50:25.042Z,98932.63
2023-04-30T15:55:27.490Z,98950.84
2023-04-30T16:00:30.603Z,98917.88
2023-04-30T16:05:35.321Z,98941.31
2023-04-30T16:10:38.260Z,98883.19
2023-04-30T16:15:40.601Z,98806.00
2023-04-30T16:20:45.096Z,98877.13
2023-04-30T16:25:47.528Z,98903.16
2023-04-30T16:30:53.287Z,98830.34
2023-04-30T16:35:55.696Z,98740.38
2023-04-30T16:40:58.489Z,98765.41
2023-04-30T16:46:01.038Z,98814.94
2023-04-30T16:51:04.038Z,98803.63
2023-04-30T16:56:06.701Z,98774.22
2023-04-30T17:01:09.720Z,98777.72
2023-04-30T17:06:14.583Z,98752.63
2023-04-30T17:11:20.858Z,98754.28
2023-04-30T17:16:23.770Z,98741.38
2023-04-30T17:21:30.132Z,98795.09
2023-04-30T17:26:32.586Z,98711.13
2023-04-30T17:31:35.091Z,98747.50
2023-04-30T17:36:37.809Z,98804.75
2023-04-30T17:41:40.210Z,98751.94
2023-04-30T17:46:42.714Z,98754.59
2023-04-30T17:51:48.658Z,98766.66
2023-04-30T17:56:53.463Z,98743.31
2023-04-30T18:01:56.432Z,98672.22
2023-04-30T18:06:58.891Z,98784.06
2023-04-30T18:12:01.327Z,98654.06
2023-04-30T18:17:04.051Z,98794.47
2023-04-30T18:22:09.009Z,98712.13
2023-04-30T18:27:11.917Z,98786.66
2023-04-30T18:32:15.060Z,98693.91
2023-04-30T18:37:21.333Z,98764.13
2023-04-30T18:42:26.149Z,98716.47
2023-04-30T18:47:30.840Z,98776.31
2023-04-30T18:52:33.854Z,98765.91
2023-04-30T18:57:36.401Z,98634.22
2023-04-30T19:02:38.904Z,98578.75
2023-04-30T19:07:42.675Z,98666.25
2023-04-30T19:12:45.254Z,98734.72
2023-04-30T19:17:47.963Z,98727.75
2023-04-30T19:22:50.532Z,98713.00
2023-04-30T19:27:52.988Z,98657.59
2023-04-30T19:32:55.527Z,98667.13
2023-04-30T19:37:58.062Z,98505.19
2023-04-30T19:43:00.429Z,98703.50
2023-04-30T19:48:02.857Z,98698.31
2023-04-30T19:53:05.358Z,98575.31
2023-04-30T19:58:07.934Z,98692.22
2023-04-30T20:03:10.468Z,98683.56
2023-04-30T20:08:13.039Z,98596.94
2023-04-30T20:13:16.242Z,98643.69
2023-04-30T20:18:21.140Z,98647.97
2023-04-30T20:23:23.722Z,98606.38
2023-04-30T20:28:26.109Z,98634.13
2023-04-30T20:33:29.263Z,98572.63
2023-04-30T20:38:31.648Z,98615.03
2023-04-30T20:43:34.262Z,98602.91
2023-04-30T20:48:36.675Z,98614.22
2023-04-30T20:53:39.025Z,98626.34
2023-04-30T20:58:43.214Z,98533.63
2023-04-30T21:03:45.613Z,98558.69
2023-04-30T21:08:49.008Z,98422.81
2023-04-30T21:13:51.550Z,98411.56
2023-04-30T21:18:54.004Z,98341.56
2023-04-30T21:23:56.436Z,98287.94
2023-04-30T21:28:58.733Z,98539.63
2023-04-30T21:34:01.116Z,98441.84
2023-04-30T21:39:04.401Z,98338.94
2023-04-30T21:44:06.793Z,98353.63
2023-04-30T21:49:10.204Z,98558.72
2023-04-30T21:54:13.042Z,98545.69
2023-04-30T21:59:15.539Z,98455.66
2023-04-30T22:04:18.184Z,98549.16
2023-04-30T22:09:20.890Z,98383.94
2023-04-30T22:14:23.668Z,98550.94
2023-04-30T22:19:26.015Z,98464.41
2023-04-30T22:24:28.471Z,98499.00
2023-04-30T22:29:31.115Z,98500.72
2023-04-30T22:34:40.594Z,98512.78
2023-04-30T22:39:43.277Z,98531.88
2023-04-30T22:44:46.226Z,98542.25
2023-04-30T22:49:48.729Z,98370.97
2023-04-30T22:54:51.193Z,98419.38
2023-04-30T22:59:53.776Z,98500.66
2023-04-30T23:04:56.446Z,98327.66
2023-04-30T23:09:59.037Z,98459.94
2023-04-30T23:15:02.378Z,98460.84
2023-04-30T23:20:08.231Z,98456.53
2023-04-30T23:25:10.621Z,98384.75
2023-04-30T23:30:13.289Z,98375.16
2023-04-30T23:35:15.719Z,98449.53
2023-04-30T23:40:20.063Z,98449.44
2023-04-30T23:45:22.743Z,98396.72
2023-04-30T23:50:25.256Z,98466.81
2023-04-30T23:55:27.786Z,98433.06
